Time;durP1;ratioP1;P1;durP2;ratioP2;P2;SDS_P1;SDS_P2;PMS_P1;PMS_P2;Temp;Humidity;BMP_temperature;BMP_pressure;BME280_temperature;BME280_humidity;BME280_pressure;Samples;Min_cycle;Max_cycle;Signal;HPM_P1;HPM_P2
2023/10/30 00:00:49;;;;;;;1.80;0.70;;;;;;;6.93;83.49;95674.71;106645;1274;24362;-80
2023/10/30 00:03:36;;;;;;;5.50;1.00;;;;;;;6.97;83.62;95676.45;106670;1275;24931;-79
2023/10/30 00:06:04;;;;;;;0.90;0.40;;;;;;;7.00;83.68;95675.39;106694;1275;24057;-80
2023/10/30 00:08:33;;;;;;;1.10;0.60;;;;;;;6.98;83.49;95674.70;106677;1275;22529;-80
2023/10/30 00:11:01;;;;;;;2.00;0.50;;;;;;;6.96;83.90;95677.15;106650;1274;22639;-80
2023/10/30 00:13:29;;;;;;;3.20;0.50;;;;;;;7.00;84.32;95674.87;106721;1275;24823;-80
2023/10/30 00:15:57;;;;;;;1.80;0.60;;;;;;;6.95;83.89;95676.46;106637;1274;25485;-80
2023/10/30 00:18:25;;;;;;;4.50;0.60;;;;;;;6.98;84.25;95675.58;106695;1274;24174;-80
2023/10/30 00:20:53;;;;;;;0.70;0.40;;;;;;;7.03;84.43;95667.33;106665;1270;24450;-80
2023/10/30 00:23:22;;;;;;;1.00;0.50;;;;;;;7.05;84.61;95666.44;106680;1275;22524;-80
2023/10/30 00:25:51;;;;;;;3.40;0.70;;;;;;;7.05;84.20;95664.52;106698;1274;24296;-80
2023/10/30 00:28:19;;;;;;;2.00;0.60;;;;;;;7.08;84.45;95663.12;106725;1275;22520;-80
2023/10/30 00:30:48;;;;;;;2.00;0.60;;;;;;;7.08;84.21;95662.23;106618;1274;25419;-80
2023/10/30 00:33:16;;;;;;;2.20;0.60;;;;;;;7.03;84.23;95659.12;106696;1275;22520;-80
2023/10/30 00:35:44;;;;;;;1.80;1.20;;;;;;;7.04;84.51;95662.42;106729;1275;24926;-80
2023/10/30 00:38:12;;;;;;;1.20;0.80;;;;;;;7.09;84.49;95657.69;106666;1275;24068;-80
2023/10/30 00:40:40;;;;;;;3.00;0.80;;;;;;;7.13;84.19;95655.23;106669;1274;22520;-80
2023/10/30 00:43:09;;;;;;;1.50;0.60;;;;;;;7.15;84.30;95661.52;106658;1274;24383;-80
2023/10/30 00:45:38;;;;;;;1.20;0.70;;;;;;;7.20;84.41;95660.97;106713;1274;22650;-80
2023/10/30 00:48:08;;;;;;;4.60;0.50;;;;;;;7.19;84.17;95658.70;106680;1274;22981;-80
2023/10/30 00:50:37;;;;;;;3.60;0.90;;;;;;;7.22;83.87;95657.46;106637;1275;24203;-80
2023/10/30 00:53:06;;;;;;;2.60;0.90;;;;;;;7.18;83.55;95660.45;106727;1274;22586;-80
2023/10/30 00:55:40;;;;;;;2.90;1.20;;;;;;;7.16;83.57;95664.84;106602;1275;25506;-80
2023/10/30 00:58:08;;;;;;;3.00;0.70;;;;;;;7.18;83.80;95667.27;106606;1274;22613;-80
2023/10/30 01:00:36;;;;;;;2.60;0.90;;;;;;;7.20;83.69;95670.59;106615;1274;22520;-80
2023/10/30 01:03:04;;;;;;;2.00;0.90;;;;;;;7.17;83.76;95667.10;106673;1275;22590;-81
2023/10/30 01:05:33;;;;;;;2.10;1.00;;;;;;;7.09;83.24;95666.27;106615;1275;25729;-80
2023/10/30 01:08:08;;;;;;;4.00;1.10;;;;;;;7.04;83.54;95666.27;106672;1274;22531;-80
2023/10/30 01:10:36;;;;;;;4.00;0.90;;;;;;;7.02;83.75;95664.89;106684;1274;23894;-80
2023/10/30 01:13:05;;;;;;;5.40;2.50;;;;;;;6.95;84.09;95664.39;106625;1275;24052;-80
2023/10/30 01:15:34;;;;;;;3.00;1.00;;;;;;;6.90;83.67;95668.08;106700;1275;22533;-80
2023/10/30 01:18:03;;;;;;;2.80;1.50;;;;;;;6.89;83.94;95666.34;106661;1275;22541;-80
2023/10/30 01:20:38;;;;;;;2.80;1.00;;;;;;;6.85;84.46;95662.33;106617;1275;25291;-80
2023/10/30 01:23:06;;;;;;;2.40;0.80;;;;;;;6.81;84.39;95663.73;106669;1274;25597;-80
2023/10/30 01:25:34;;;;;;;3.60;1.80;;;;;;;6.80;84.85;95658.66;106681;1275;22553;-80
2023/10/30 01:28:02;;;;;;;3.00;1.20;;;;;;;6.73;84.39;95664.11;106677;1274;22526;-80
2023/10/30 01:30:30;;;;;;;3.40;1.00;;;;;;;6.68;84.31;95663.94;106621;1275;25413;-80
2023/10/30 01:32:59;;;;;;;3.40;1.40;;;;;;;6.67;84.62;95664.48;106481;1274;22517;-80
2023/10/30 01:35:28;;;;;;;5.40;3.00;;;;;;;6.66;85.34;95667.10;106761;1274;22546;-80
2023/10/30 01:37:56;;;;;;;3.10;1.40;;;;;;;6.66;84.83;95663.60;106646;1275;22664;-80
2023/10/30 01:40:25;;;;;;;36.00;13.70;;;;;;;6.67;85.49;95663.25;106648;1265;25515;-80
2023/10/30 01:42:55;;;;;;;35.50;13.70;;;;;;;6.62;86.31;95666.05;106749;1273;25362;-80
2023/10/30 01:45:23;;;;;;;38.80;13.00;;;;;;;6.61;85.98;95665.88;106621;1275;24702;-80
2023/10/30 01:47:51;;;;;;;29.30;9.90;;;;;;;6.63;86.23;95665.17;106635;1274;22541;-80
2023/10/30 01:50:22;;;;;;;24.40;8.90;;;;;;;6.68;86.45;95665.00;106694;1274;22638;-80
2023/10/30 01:52:50;;;;;;;11.40;3.70;;;;;;;6.73;85.92;95663.05;106647;1275;22533;-80
2023/10/30 01:55:19;;;;;;;12.80;5.70;;;;;;;6.80;86.21;95657.96;106678;1274;22523;-80
2023/10/30 01:57:47;;;;;;;18.80;7.70;;;;;;;6.86;85.80;95661.98;106625;1275;22539;-80
2023/10/30 02:00:16;;;;;;;7.10;2.30;;;;;;;6.89;85.39;95660.91;106437;1275;22563;-80
2023/10/30 02:02:44;;;;;;;7.10;2.80;;;;;;;6.91;85.89;95663.52;106627;1275;23151;-80
2023/10/30 02:05:13;;;;;;;2.50;1.00;;;;;;;6.95;86.07;95667.89;106731;1275;24308;-81
2023/10/30 02:07:41;;;;;;;4.20;1.30;;;;;;;7.04;86.06;95662.79;106661;1275;22619;-80
2023/10/30 02:10:11;;;;;;;2.50;1.20;;;;;;;7.08;85.91;95667.31;106687;1275;22525;-80
2023/10/30 02:12:43;;;;;;;1.60;1.10;;;;;;;7.14;85.74;95665.19;106687;1275;24376;-80
2023/10/30 02:15:11;;;;;;;3.40;1.00;;;;;;;7.19;85.88;95663.42;106609;1275;24278;-81
2023/10/30 02:17:39;;;;;;;2.70;0.90;;;;;;;7.24;85.58;95668.66;106663;1275;24391;-81
2023/10/30 02:20:08;;;;;;;1.00;0.80;;;;;;;7.28;85.61;95663.21;106643;1274;23023;-81
2023/10/30 02:22:36;;;;;;;1.10;0.50;;;;;;;7.30;85.50;95660.39;106615;1275;25498;-81
2023/10/30 02:25:05;;;;;;;2.70;1.10;;;;;;;7.35;85.43;95664.39;106725;1275;22542;-80
2023/10/30 02:27:34;;;;;;;3.20;1.90;;;;;;;7.35;85.12;95651.80;106631;1275;24292;-80
2023/10/30 02:30:02;;;;;;;3.20;0.80;;;;;;;7.34;85.05;95646.38;106461;1275;23880;-80
2023/10/30 02:32:30;;;;;;;7.00;1.50;;;;;;;7.34;84.84;95643.93;106650;1275;22545;-80
2023/10/30 02:34:58;;;;;;;3.90;0.90;;;;;;;7.35;85.03;95655.48;106634;1275;22481;-81
2023/10/30 02:37:27;;;;;;;3.80;1.10;;;;;;;7.37;85.30;95652.49;106600;1274;25432;-80
2023/10/30 02:39:55;;;;;;;4.90;2.20;;;;;;;7.39;85.23;95646.35;106640;1275;25254;-80
2023/10/30 02:42:23;;;;;;;6.30;1.80;;;;;;;7.40;84.97;95648.27;106649;1275;25291;-81
2023/10/30 02:44:51;;;;;;;7.00;2.50;;;;;;;7.42;85.04;95644.59;106631;1275;22523;-80
2023/10/30 02:47:23;;;;;;;5.90;2.70;;;;;;;7.37;84.61;95641.81;106614;1275;22542;-81
2023/10/30 02:49:51;;;;;;;3.90;2.00;;;;;;;7.33;84.62;95640.44;106715;1275;25493;-80
2023/10/30 02:52:20;;;;;;;3.60;1.60;;;;;;;7.31;84.48;95643.42;106763;1274;22643;-80
2023/10/30 02:54:48;;;;;;;4.60;1.90;;;;;;;7.29;84.35;95652.89;106720;1274;24373;-80
2023/10/30 02:57:16;;;;;;;5.60;1.60;;;;;;;7.24;84.28;95660.60;106628;1275;24076;-81
2023/10/30 02:59:45;;;;;;;3.30;1.30;;;;;;;7.24;84.51;95653.07;106710;1275;24393;-81
2023/10/30 03:02:13;;;;;;;2.10;1.20;;;;;;;7.24;84.94;95652.55;106619;1275;22526;-80
2023/10/30 03:04:42;;;;;;;3.30;1.30;;;;;;;7.17;84.68;95655.55;106691;1275;22661;-81
2023/10/30 03:07:10;;;;;;;5.00;1.50;;;;;;;7.10;84.78;95656.11;106665;1275;25260;-81
2023/10/30 03:09:39;;;;;;;3.90;1.50;;;;;;;7.04;85.15;95651.59;106716;1274;25311;-81
2023/10/30 03:12:07;;;;;;;5.30;2.00;;;;;;;6.98;84.90;95648.98;106682;1275;24376;-80
2023/10/30 03:14:36;;;;;;;3.80;1.60;;;;;;;6.92;84.68;95644.30;106703;1265;24285;-81
2023/10/30 03:17:05;;;;;;;7.20;2.70;;;;;;;6.89;84.95;95647.63;106645;1275;24219;-80
2023/10/30 03:19:33;;;;;;;3.70;2.20;;;;;;;6.89;85.29;95651.64;106674;1275;24393;-81
2023/10/30 03:22:02;;;;;;;5.00;1.90;;;;;;;6.90;85.04;95651.46;106660;1275;24233;-81
2023/10/30 03:24:30;;;;;;;8.20;2.70;;;;;;;6.94;85.19;95649.36;106397;1275;22541;-80
2023/10/30 03:26:58;;;;;;;10.90;4.90;;;;;;;6.95;85.72;95650.75;106713;1275;22516;-81
2023/10/30 03:29:26;;;;;;;10.20;4.30;;;;;;;6.99;85.48;95648.30;106636;1275;22530;-80
2023/10/30 03:31:55;;;;;;;15.30;4.70;;;;;;;7.04;85.48;95655.09;106630;1275;24315;-80
2023/10/30 03:34:23;;;;;;;8.50;3.80;;;;;;;7.05;85.45;95650.89;106747;1275;22527;-81
2023/10/30 03:36:51;;;;;;;10.60;3.40;;;;;;;7.10;85.46;95647.36;106628;1275;22520;-80
2023/10/30 03:39:19;;;;;;;13.50;4.90;;;;;;;7.15;85.72;95651.02;106679;1269;24258;-80
2023/10/30 03:41:47;;;;;;;13.00;5.20;;;;;;;7.21;85.60;95649.25;106823;1275;23892;-81
2023/10/30 03:44:17;;;;;;;12.20;5.40;;;;;;;7.24;85.51;95654.83;106680;1275;25426;-80
2023/10/30 03:46:46;;;;;;;10.40;5.60;;;;;;;7.28;85.54;95653.06;106641;1270;23676;-80
2023/10/30 03:49:14;;;;;;;10.10;4.30;;;;;;;7.28;85.34;95660.58;106695;1275;24503;-81
2023/10/30 03:51:42;;;;;;;5.40;2.50;;;;;;;7.27;85.03;95664.61;106632;1275;22527;-81
2023/10/30 03:54:11;;;;;;;5.10;2.60;;;;;;;7.30;85.39;95650.25;106658;1275;25364;-81
2023/10/30 03:56:39;;;;;;;5.10;2.20;;;;;;;7.29;85.12;95659.17;106672;1275;22522;-80
2023/10/30 03:59:07;;;;;;;6.70;2.70;;;;;;;7.29;85.53;95659.70;106446;1275;22533;-80
2023/10/30 04:01:35;;;;;;;7.80;3.00;;;;;;;7.34;85.28;95643.94;106464;1275;25419;-80
2023/10/30 04:04:05;;;;;;;41.10;13.40;;;;;;;7.29;85.47;95659.00;106668;1275;22518;-80
2023/10/30 04:06:35;;;;;;;13.70;4.40;;;;;;;7.30;85.50;95655.14;106724;1275;25413;-81
2023/10/30 04:09:07;;;;;;;7.70;3.10;;;;;;;7.34;85.42;95656.88;106628;1275;25438;-80
2023/10/30 04:11:35;;;;;;;3.70;2.00;;;;;;;7.33;85.21;95654.25;106635;1273;24299;-81
2023/10/30 04:14:03;;;;;;;7.60;2.60;;;;;;;7.36;85.43;95652.14;106653;1275;24210;-80
2023/10/30 04:16:31;;;;;;;3.00;1.50;;;;;;;7.40;85.43;95652.13;106689;1275;23892;-81
2023/10/30 04:18:59;;;;;;;19.70;8.50;;;;;;;7.45;85.23;95644.92;106668;1272;22531;-80
2023/10/30 04:21:28;;;;;;;14.70;7.00;;;;;;;7.49;85.50;95646.65;106685;1275;25330;-81
2023/10/30 04:23:57;;;;;;;30.50;11.30;;;;;;;7.50;85.21;95639.98;106632;1275;22538;-80
2023/10/30 04:26:25;;;;;;;15.00;7.00;;;;;;;7.51;85.20;95643.99;106663;1275;22524;-80
2023/10/30 04:28:54;;;;;;;16.20;7.10;;;;;;;7.51;85.36;95647.84;106706;1275;22559;-80
2023/10/30 04:31:22;;;;;;;20.10;9.70;;;;;;;7.53;85.11;95640.86;106614;1275;25313;-80
2023/10/30 04:33:50;;;;;;;31.40;15.10;;;;;;;7.49;84.98;95638.77;106606;1275;22523;-80
2023/10/30 04:36:18;;;;;;;26.00;12.30;;;;;;;7.50;85.13;95647.16;106643;1275;23919;-80
2023/10/30 04:38:46;;;;;;;27.50;12.20;;;;;;;7.56;85.47;95647.66;106652;1275;22632;-81
2023/10/30 04:41:14;;;;;;;17.10;9.20;;;;;;;7.62;85.11;95642.55;106616;1274;22529;-80
2023/10/30 04:43:43;;;;;;;15.60;7.60;;;;;;;7.61;84.84;95653.58;106463;1275;24359;-80
2023/10/30 04:46:11;;;;;;;19.60;10.40;;;;;;;7.55;84.33;95654.30;106666;1275;22527;-81
2023/10/30 04:48:39;;;;;;;21.40;10.30;;;;;;;7.55;84.66;95651.16;106669;1274;24402;-81
2023/10/30 04:51:07;;;;;;;7.80;3.80;;;;;;;7.53;84.31;95645.40;106627;1275;22533;-81
2023/10/30 04:53:35;;;;;;;25.80;10.00;;;;;;;7.50;84.67;95656.25;106676;1275;22925;-80
2023/10/30 04:56:04;;;;;;;24.70;11.00;;;;;;;7.52;84.77;95647.52;106743;1274;22627;-81
2023/10/30 04:58:32;;;;;;;42.20;15.00;;;;;;;7.52;84.43;95643.83;106583;1275;24869;-81
2023/10/30 05:01:09;;;;;;;43.30;16.80;;;;;;;7.46;84.32;95647.52;106791;1255;22535;-80
2023/10/30 05:03:37;;;;;;;41.20;16.50;;;;;;;7.43;84.62;95647.73;106696;1274;24478;-80
2023/10/30 05:06:06;;;;;;;35.60;14.00;;;;;;;7.41;84.62;95651.58;106724;1275;25341;-80
2023/10/30 05:08:36;;;;;;;28.60;11.80;;;;;;;7.37;84.59;95653.36;106683;1275;25426;-81
2023/10/30 05:11:05;;;;;;;28.70;11.70;;;;;;;7.34;84.68;95655.13;106649;1275;23889;-80
2023/10/30 05:13:34;;;;;;;27.30;11.20;;;;;;;7.37;85.02;95655.10;106677;1275;25584;-80
2023/10/30 05:16:03;;;;;;;15.40;6.70;;;;;;;7.38;84.88;95646.88;106726;1274;24212;-81
2023/10/30 05:18:31;;;;;;;18.80;9.00;;;;;;;7.39;85.08;95651.43;106640;1260;23947;-81
2023/10/30 05:20:59;;;;;;;30.80;13.50;;;;;;;7.36;86.18;95646.02;106673;1275;24221;-81
2023/10/30 05:23:27;;;;;;;21.70;10.00;;;;;;;7.39;85.69;95645.48;106653;1275;24226;-81
2023/10/30 05:25:55;;;;;;;10.50;5.70;;;;;;;7.46;85.78;95649.64;106605;1275;22630;-80
2023/10/30 05:28:24;;;;;;;19.80;8.40;;;;;;;7.52;86.02;95653.27;106647;1274;22554;-81
2023/10/30 05:30:54;;;;;;;22.90;10.10;;;;;;;7.57;85.68;95656.75;106715;1275;24272;-81
2023/10/30 05:33:23;;;;;;;26.90;11.70;;;;;;;7.63;85.72;95651.81;106796;1275;24253;-80
2023/10/30 05:35:52;;;;;;;29.10;14.70;;;;;;;7.68;85.63;95654.41;106640;1275;22867;-81
2023/10/30 05:38:20;;;;;;;19.00;9.50;;;;;;;7.75;85.65;95662.95;106650;1275;22542;-80
2023/10/30 05:40:48;;;;;;;18.00;8.70;;;;;;;7.76;84.95;95661.89;106647;1275;22641;-80
2023/10/30 05:43:17;;;;;;;20.60;12.50;;;;;;;7.74;85.00;95669.08;106706;1275;24102;-81
2023/10/30 05:45:47;;;;;;;21.50;12.00;;;;;;;7.80;85.54;95659.57;106638;1275;23920;-81
2023/10/30 05:48:16;;;;;;;21.80;11.00;;;;;;;7.87;85.18;95662.69;106906;1272;22523;-81
2023/10/30 05:50:44;;;;;;;15.40;7.70;;;;;;;7.96;85.54;95661.92;106679;1274;25894;-81
2023/10/30 05:53:12;;;;;;;18.90;8.90;;;;;;;8.00;84.93;95664.34;106677;1275;25306;-81
2023/10/30 05:55:40;;;;;;;21.60;8.80;;;;;;;8.01;84.78;95658.02;106691;1275;24259;-80
2023/10/30 05:58:09;;;;;;;16.60;8.90;;;;;;;8.05;84.85;95660.63;106685;1275;24254;-81
2023/10/30 06:00:37;;;;;;;47.30;27.10;;;;;;;8.08;85.49;95658.85;106649;1274;22804;-80
2023/10/30 06:03:13;;;;;;;57.30;31.90;;;;;;;8.17;85.19;95665.61;106639;1275;25426;-81
2023/10/30 06:05:42;;;;;;;40.40;24.00;;;;;;;8.20;84.73;95658.39;106649;1275;23669;-81
2023/10/30 06:08:11;;;;;;;54.90;30.90;;;;;;;8.25;84.71;95669.05;106745;1274;22640;-81
2023/10/30 06:10:39;;;;;;;41.10;25.20;;;;;;;8.30;84.68;95666.38;106738;1275;25404;-80
2023/10/30 06:13:08;;;;;;;34.50;23.10;;;;;;;8.34;84.67;95670.20;106656;1275;24330;-81
2023/10/30 06:15:37;;;;;;;25.10;16.40;;;;;;;8.43;84.74;95674.37;106679;1275;25380;-80
2023/10/30 06:18:05;;;;;;;25.80;15.50;;;;;;;8.52;84.69;95669.20;106596;1275;22542;-80
2023/10/30 06:20:33;;;;;;;27.80;16.90;;;;;;;8.60;84.46;95670.88;106645;1274;22768;-81
2023/10/30 06:23:01;;;;;;;25.70;16.00;;;;;;;8.68;84.33;95671.33;106685;1275;25428;-80
2023/10/30 06:25:29;;;;;;;14.70;9.40;;;;;;;8.75;84.25;95674.06;106663;1275;25338;-80
2023/10/30 06:27:57;;;;;;;14.80;9.80;;;;;;;8.80;84.00;95666.98;106488;1275;25284;-81
2023/10/30 06:30:26;;;;;;;15.10;9.50;;;;;;;8.89;84.21;95667.42;106681;1275;22642;-80
2023/10/30 06:32:54;;;;;;;15.90;8.40;;;;;;;8.96;84.20;95672.08;106680;1275;24408;-81
2023/10/30 06:35:22;;;;;;;9.50;5.70;;;;;;;9.03;84.13;95665.33;106667;1253;25264;-81
2023/10/30 06:37:50;;;;;;;7.70;5.40;;;;;;;9.10;84.02;95666.48;106665;1275;22530;-81
2023/10/30 06:40:18;;;;;;;11.10;5.90;;;;;;;9.16;84.08;95667.47;106639;1275;22661;-80
2023/10/30 06:42:46;;;;;;;10.20;6.90;;;;;;;9.20;84.10;95671.30;106600;1275;22576;-81
2023/10/30 06:45:15;;;;;;;10.80;6.10;;;;;;;9.26;83.86;95670.67;106555;1275;25495;-80
2023/10/30 06:47:44;;;;;;;8.90;5.00;;;;;;;9.33;83.96;95674.27;106631;1275;25402;-80
2023/10/30 06:50:12;;;;;;;8.30;4.10;;;;;;;9.40;84.14;95677.02;106641;1275;24226;-80
2023/10/30 06:52:40;;;;;;;13.60;6.60;;;;;;;9.44;84.15;95678.52;106678;1275;25405;-80
2023/10/30 06:55:08;;;;;;;7.90;5.10;;;;;;;9.51;84.01;95673.34;106656;1274;24285;-81
2023/10/30 06:57:36;;;;;;;11.00;7.30;;;;;;;9.59;83.75;95672.02;106733;1275;22697;-80
2023/10/30 07:00:06;;;;;;;16.40;9.80;;;;;;;9.67;83.61;95672.95;106652;1275;22615;-80
2023/10/30 07:02:34;;;;;;;16.50;10.90;;;;;;;9.75;84.21;95670.72;106696;1275;22540;-81
2023/10/30 07:05:02;;;;;;;17.40;10.50;;;;;;;9.84;84.01;95663.58;106694;1275;22541;-80
2023/10/30 07:07:31;;;;;;;20.90;10.00;;;;;;;9.93;83.87;95662.39;106630;1275;24281;-80
2023/10/30 07:10:01;;;;;;;25.30;13.90;;;;;;;10.07;83.94;95664.12;106637;1275;22545;-81
2023/10/30 07:12:29;;;;;;;27.10;14.40;;;;;;;10.19;83.96;95661.48;106653;1275;24275;-80
2023/10/30 07:14:57;;;;;;;16.70;9.90;;;;;;;10.29;83.57;95659.73;106610;1275;22755;-80
2023/10/30 07:17:25;;;;;;;18.10;10.00;;;;;;;10.39;83.64;95660.64;106690;1275;24305;-81
2023/10/30 07:19:54;;;;;;;22.40;13.00;;;;;;;10.50;83.72;95654.29;106656;1274;22536;-81
2023/10/30 07:22:22;;;;;;;27.50;14.50;;;;;;;10.61;82.98;95649.00;106579;1275;24349;-79
2023/10/30 07:24:50;;;;;;;17.80;10.90;;;;;;;10.69;82.23;95642.34;106597;1274;22738;-80
2023/10/30 07:27:18;;;;;;;15.80;8.40;;;;;;;10.81;82.58;95639.48;106609;1275;25340;-80
2023/10/30 07:29:47;;;;;;;10.70;5.80;;;;;;;10.99;82.89;95649.35;106369;1275;22538;-80
2023/10/30 07:32:15;;;;;;;9.60;5.50;;;;;;;11.15;82.63;95649.91;106637;1274;22516;-80
2023/10/30 07:34:44;;;;;;;7.90;4.90;;;;;;;11.29;82.27;95649.11;106565;1274;22527;-80
2023/10/30 07:37:12;;;;;;;8.90;5.70;;;;;;;11.41;81.94;95646.57;106618;1275;22611;-80
2023/10/30 07:39:40;;;;;;;8.60;5.00;;;;;;;11.49;81.58;95647.45;106609;1275;22534;-80
2023/10/30 07:42:09;;;;;;;22.70;12.80;;;;;;;11.57;81.24;95653.45;106619;1275;24202;-80
2023/10/30 07:44:38;;;;;;;40.20;26.10;;;;;;;11.61;80.59;95654.96;106628;1275;25565;-79
2023/10/30 07:47:06;;;;;;;94.00;60.20;;;;;;;11.65;80.42;95655.91;106670;1275;25420;-80
2023/10/30 07:49:34;;;;;;;79.00;61.00;;;;;;;11.74;80.47;95648.33;106531;1275;24219;-80
2023/10/30 07:52:02;;;;;;;61.60;49.10;;;;;;;11.80;79.95;95650.86;106502;1275;22535;-80
2023/10/30 07:54:31;;;;;;;193.10;161.80;;;;;;;11.82;79.80;95652.91;106670;1275;22584;-79
2023/10/30 07:56:59;;;;;;;56.10;44.50;;;;;;;11.84;79.79;95656.21;106291;1275;411715;-79
2023/10/30 07:59:27;;;;;;;65.20;35.40;;;;;;;11.89;79.85;95652.60;106612;1275;22849;-79
2023/10/30 08:01:55;;;;;;;89.20;44.90;;;;;;;11.96;79.93;95660.73;106521;1275;22554;-80
2023/10/30 08:04:24;;;;;;;89.20;50.60;;;;;;;12.01;79.85;95665.20;106626;1275;22573;-80
2023/10/30 08:06:52;;;;;;;98.60;53.10;;;;;;;12.04;79.38;95664.42;106706;1275;22534;-80
2023/10/30 08:09:20;;;;;;;83.30;46.00;;;;;;;12.07;79.50;95665.58;106699;1275;25413;-79
2023/10/30 08:11:49;;;;;;;56.60;31.10;;;;;;;12.15;79.51;95669.48;106687;1275;22531;-80
2023/10/30 08:14:17;;;;;;;36.80;20.50;;;;;;;12.19;79.62;95677.32;106616;1275;25490;-80
2023/10/30 08:16:45;;;;;;;35.60;19.10;;;;;;;12.27;79.56;95681.52;106660;1275;24699;-79
2023/10/30 08:19:14;;;;;;;41.60;21.90;;;;;;;12.36;79.51;95677.25;106615;1275;22526;-79
2023/10/30 08:21:42;;;;;;;37.20;18.60;;;;;;;12.48;79.57;95673.95;106667;1275;24222;-79
2023/10/30 08:24:11;;;;;;;31.90;18.90;;;;;;;12.67;80.05;95669.61;106592;1275;22538;-79
2023/10/30 08:26:39;;;;;;;29.40;20.20;;;;;;;12.85;80.05;95670.72;106618;1275;25338;-79
2023/10/30 08:29:07;;;;;;;29.40;18.00;;;;;;;13.05;79.51;95672.15;106645;1255;25690;-79
2023/10/30 08:31:35;;;;;;;25.80;17.70;;;;;;;13.31;79.63;95671.98;106640;1275;22524;-79
2023/10/30 08:34:04;;;;;;;19.00;14.00;;;;;;;13.62;79.20;95677.64;106627;1275;22652;-79
2023/10/30 08:36:32;;;;;;;22.10;15.00;;;;;;;13.89;77.00;95672.78;106689;1275;22524;-79
2023/10/30 08:39:00;;;;;;;20.30;7.20;;;;;;;14.13;76.53;95672.02;106652;1275;25408;-79
2023/10/30 08:41:28;;;;;;;13.10;7.20;;;;;;;14.37;76.18;95670.92;106666;1274;22791;-79
2023/10/30 08:43:56;;;;;;;16.80;6.30;;;;;;;14.56;74.95;95674.77;106669;1275;22526;-79
2023/10/30 08:46:25;;;;;;;20.00;6.70;;;;;;;14.74;73.80;95671.14;106519;1275;22563;-79
2023/10/30 08:48:53;;;;;;;13.60;5.30;;;;;;;14.97;71.53;95671.27;106619;1274;22531;-79
2023/10/30 08:51:21;;;;;;;98.60;63.40;;;;;;;15.15;72.34;95673.65;106643;1264;22606;-78
2023/10/30 08:53:51;;;;;;;13.00;4.30;;;;;;;15.27;68.43;95676.21;106597;1274;25335;-78
2023/10/30 08:56:19;;;;;;;11.80;3.70;;;;;;;15.47;66.61;95667.52;106663;1275;24060;-77
2023/10/30 08:58:47;;;;;;;11.70;3.90;;;;;;;15.67;67.12;95664.15;106657;1275;22531;-79
2023/10/30 09:01:15;;;;;;;9.70;2.60;;;;;;;15.78;67.00;95662.33;106596;1275;23528;-79
2023/10/30 09:03:43;;;;;;;9.50;2.70;;;;;;;15.97;65.82;95662.47;106615;1275;22532;-78
2023/10/30 09:06:12;;;;;;;8.80;2.60;;;;;;;16.09;64.69;95654.92;106613;1274;24411;-79
2023/10/30 09:08:40;;;;;;;8.40;2.90;;;;;;;16.17;64.64;95650.53;106704;1274;22635;-79
2023/10/30 09:11:08;;;;;;;14.40;3.40;;;;;;;16.20;65.21;95656.45;106694;1275;22523;-79
2023/10/30 09:13:36;;;;;;;6.00;3.40;;;;;;;16.17;65.61;95656.21;106644;1274;26098;-78
2023/10/30 09:16:05;;;;;;;6.90;3.40;;;;;;;16.18;65.46;95660.42;106590;1275;22533;-79
2023/10/30 09:18:34;;;;;;;4.10;2.40;;;;;;;16.31;64.97;95659.02;106721;1275;22526;-77
2023/10/30 09:21:03;;;;;;;5.20;2.10;;;;;;;16.52;63.73;95656.95;106671;1275;22647;-78
2023/10/30 09:23:31;;;;;;;5.00;1.80;;;;;;;16.74;64.15;95648.06;106689;1274;22525;-78
2023/10/30 09:25:59;;;;;;;6.40;2.10;;;;;;;16.94;63.83;95643.47;106861;1274;24242;-79
2023/10/30 09:28:28;;;;;;;7.50;2.20;;;;;;;17.06;63.13;95640.34;106728;1274;24405;-78
2023/10/30 09:30:56;;;;;;;8.70;2.30;;;;;;;17.09;61.88;95642.66;106679;1275;22527;-78
2023/10/30 09:33:24;;;;;;;4.20;2.10;;;;;;;17.10;62.08;95643.88;106680;1275;22641;-78
2023/10/30 09:35:52;;;;;;;12.80;2.60;;;;;;;17.07;62.00;95645.42;106658;1275;22648;-78
2023/10/30 09:38:20;;;;;;;6.10;2.00;;;;;;;17.02;62.26;95642.95;106958;1274;25366;-78
2023/10/30 09:41:05;;;;;;;11.10;2.60;;;;;;;16.98;62.60;95645.83;106963;1275;25300;-78
2023/10/30 09:43:34;;;;;;;10.00;1.90;;;;;;;16.93;62.70;95643.88;106571;1275;22533;-78
2023/10/30 09:46:06;;;;;;;10.30;2.00;;;;;;;16.89;62.86;95639.81;106783;1275;22934;-78
2023/10/30 09:48:37;;;;;;;5.50;2.70;;;;;;;16.86;63.08;95643.84;106715;1275;22530;-78
2023/10/30 09:51:07;;;;;;;3.50;2.00;;;;;;;16.80;62.79;95642.29;106665;1274;22609;-78
2023/10/30 09:53:37;;;;;;;4.80;2.00;;;;;;;16.75;63.09;95641.44;106730;1274;25403;-78
2023/10/30 09:56:06;;;;;;;4.50;2.00;;;;;;;16.73;63.35;95640.09;106734;1274;24209;-78
2023/10/30 09:58:38;;;;;;;3.90;2.10;;;;;;;16.73;63.58;95639.20;106653;1274;25358;-78
2023/10/30 10:01:06;;;;;;;5.00;2.00;;;;;;;16.89;63.82;95634.64;106698;1274;22545;-78
2023/10/30 10:03:34;;;;;;;5.40;2.20;;;;;;;17.21;63.82;95629.37;106617;1275;23278;-78
2023/10/30 10:06:04;;;;;;;4.20;1.80;;;;;;;17.47;61.44;95627.33;106718;1275;22523;-78
2023/10/30 10:08:33;;;;;;;4.30;2.00;;;;;;;17.75;61.81;95618.39;106713;1275;25503;-78
2023/10/30 10:11:04;;;;;;;80.70;56.00;;;;;;;18.06;59.78;95610.71;106684;1274;22525;-78
2023/10/30 10:13:37;;;;;;;16.30;10.40;;;;;;;18.33;59.19;95608.71;106606;1274;25358;-78
2023/10/30 10:16:30;;;;;;;9.90;6.00;;;;;;;18.53;59.08;95601.11;106727;1274;22514;-78
2023/10/30 10:18:58;;;;;;;6.00;2.50;;;;;;;18.83;58.95;95608.23;106681;1274;25164;-78
2023/10/30 10:21:28;;;;;;;6.40;2.20;;;;;;;19.27;58.93;95606.14;106554;1275;24254;-78
2023/10/30 10:23:56;;;;;;;10.60;2.10;;;;;;;19.45;55.52;95603.21;106814;1274;24238;-78
2023/10/30 10:26:31;;;;;;;6.40;2.40;;;;;;;19.36;56.17;95603.14;106651;1274;24225;-78
2023/10/30 10:28:59;;;;;;;8.70;2.40;;;;;;;19.30;56.58;95605.23;106735;1274;24673;-78
2023/10/30 10:31:28;;;;;;;3.00;1.90;;;;;;;19.42;56.08;95599.64;106720;1275;25523;-78
2023/10/30 10:33:56;;;;;;;7.10;2.10;;;;;;;19.71;56.29;95591.83;106686;1275;24235;-78
2023/10/30 10:36:30;;;;;;;7.80;3.00;;;;;;;20.03;55.09;95586.14;106691;1274;22534;-78
2023/10/30 10:38:59;;;;;;;11.40;2.90;;;;;;;20.21;52.66;95583.67;106494;1274;25429;-78
2023/10/30 10:41:28;;;;;;;31.70;22.90;;;;;;;20.16;53.33;95584.00;106681;1274;25579;-77
2023/10/30 10:43:58;;;;;;;41.30;28.60;;;;;;;20.01;52.77;95585.20;106730;1274;24286;-79
2023/10/30 10:46:26;;;;;;;29.60;18.70;;;;;;;19.77;52.00;95589.58;106627;1275;22535;-78
2023/10/30 10:48:55;;;;;;;13.30;9.00;;;;;;;19.64;52.54;95586.65;106668;1274;24253;-78
2023/10/30 10:51:46;;;;;;;11.20;7.50;;;;;;;19.65;51.93;95589.08;106719;1275;22635;-79
2023/10/30 10:54:29;;;;;;;15.10;9.20;;;;;;;19.76;52.67;95583.16;106430;1270;22694;-79
2023/10/30 10:56:59;;;;;;;;;;;;;;;19.83;51.67;95580.84;106645;1274;25461;-78
2023/10/30 10:59:34;;;;;;;17.60;7.40;;;;;;;19.98;51.44;95576.98;106704;1275;23294;-79
2023/10/30 11:02:10;;;;;;;7.50;3.60;;;;;;;20.53;48.11;95580.63;106713;1275;22658;-79
2023/10/30 11:04:39;;;;;;;10.00;5.20;;;;;;;21.09;48.23;95568.23;106750;1274;25415;-78
2023/10/30 11:07:11;;;;;;;9.20;4.80;;;;;;;21.70;47.64;95564.70;106742;1275;25426;-78
2023/10/30 11:09:46;;;;;;;8.90;4.20;;;;;;;22.09;44.41;95560.22;106718;1275;22526;-79
2023/10/30 11:12:27;;;;;;;24.80;14.70;;;;;;;22.21;43.69;95553.02;106743;1274;22531;-79
2023/10/30 11:15:20;;;;;;;39.50;22.30;;;;;;;22.13;45.19;95551.89;106685;1274;24202;-78
2023/10/30 11:18:21;;;;;;;17.80;9.60;;;;;;;22.48;44.14;95546.21;106882;1266;22537;-78
2023/10/30 11:21:15;;;;;;;10.90;5.00;;;;;;;22.75;45.61;95542.63;106735;1275;22535;-79
2023/10/30 11:23:58;;;;;;;7.50;3.80;;;;;;;22.84;44.77;95531.80;106841;1275;22518;-79
2023/10/30 11:26:30;;;;;;;7.60;3.80;;;;;;;22.76;43.77;95532.13;107003;1274;22527;-81
2023/10/30 11:29:00;;;;;;;7.00;3.30;;;;;;;22.51;44.08;95532.92;107009;1274;23890;-78
2023/10/30 11:31:29;;;;;;;6.90;3.00;;;;;;;22.34;44.90;95523.17;107092;1275;22531;-79
2023/10/30 11:34:13;;;;;;;7.50;2.80;;;;;;;22.14;44.90;95518.67;107005;1274;22589;-79